Time;durP1;ratioP1;P1;durP2;ratioP2;P2;SDS_P1;SDS_P2;PMS_P1;PMS_P2;Temp;Humidity;BMP_temperature;BMP_pressure;BME280_temperature;BME280_humidity;BME280_pressure;Samples;Min_cycle;Max_cycle;Signal;HPM_P1;HPM_P2
2022/11/05 00:10:15;;;;;;;22.38;11.50;;;7.30;92.80;;;;;;5096015;28;20063;-50
2022/11/05 00:18:09;;;;;;;27.77;13.70;;;7.20;93.00;;;;;;5096677;28;20032;-50
2022/11/05 00:20:34;;;;;;;23.25;11.32;;;7.20;93.00;;;;;;5095400;28;20012;-49
2022/11/05 00:26:04;;;;;;;19.23;12.02;;;7.20;93.10;;;;;;5094784;28;20047;-49
2022/11/05 00:28:30;;;;;;;25.70;10.93;;;7.10;93.00;;;;;;5093763;28;20024;-48
2022/11/05 00:31:04;;;;;;;20.15;10.50;;;7.00;93.00;;;;;;5092282;28;20471;-48
2022/11/05 00:33:30;;;;;;;24.13;11.20;;;7.00;93.10;;;;;;5092458;28;20031;-48
2022/11/05 00:35:56;;;;;;;18.75;11.25;;;6.90;93.20;;;;;;5092886;28;20112;-51
2022/11/05 00:38:22;;;;;;;17.65;10.45;;;7.00;93.20;;;;;;5097459;28;20058;-48
2022/11/05 00:40:48;;;;;;;16.48;10.25;;;6.90;93.30;;;;;;5097468;28;20024;-47
2022/11/05 00:45:57;;;;;;;18.38;10.75;;;7.00;93.40;;;;;;5097718;28;20055;-49
2022/11/05 00:51:07;;;;;;;24.92;11.15;;;7.00;93.50;;;;;;5097624;28;20027;-51
2022/11/05 00:53:33;;;;;;;23.13;11.05;;;6.90;93.50;;;;;;5097483;28;20464;-50
2022/11/05 00:55:59;;;;;;;23.23;12.02;;;7.00;93.60;;;;;;5097159;28;20028;-49
2022/11/05 00:58:27;;;;;;;25.38;11.15;;;6.90;93.50;;;;;;5097409;28;20028;-50
2022/11/05 01:00:56;;;;;;;24.35;10.52;;;6.80;93.40;;;;;;5095909;28;20024;-51
2022/11/05 01:03:31;;;;;;;18.60;11.35;;;6.80;93.50;;;;;;5096990;28;20031;-48
2022/11/05 01:06:09;;;;;;;19.70;11.30;;;6.80;93.60;;;;;;5097200;28;20024;-49
2022/11/05 01:08:36;;;;;;;18.95;9.98;;;6.80;93.60;;;;;;5097438;28;20028;-51
2022/11/05 01:11:09;;;;;;;18.88;10.82;;;6.80;93.60;;;;;;5095705;28;20404;-49
2022/11/05 01:13:35;;;;;;;19.63;10.95;;;6.70;93.60;;;;;;5097183;28;20035;-49
2022/11/05 01:16:08;;;;;;;25.90;12.00;;;6.80;93.70;;;;;;5096745;28;20064;-49
2022/11/05 01:18:36;;;;;;;25.27;12.75;;;6.80;93.80;;;;;;5095692;28;20020;-48
2022/11/05 01:21:12;;;;;;;21.92;10.52;;;6.70;93.70;;;;;;5097144;28;20024;-49
2022/11/05 01:23:38;;;;;;;21.85;11.98;;;6.70;93.70;;;;;;5096730;28;20066;-50
2022/11/05 01:26:06;;;;;;;22.38;11.30;;;6.70;93.60;;;;;;5095353;28;20024;-48
2022/11/05 01:28:31;;;;;;;19.95;12.35;;;6.70;93.60;;;;;;5097004;28;20468;-52
2022/11/05 01:30:57;;;;;;;20.35;12.00;;;6.70;93.60;;;;;;5096660;28;20077;-48
2022/11/05 01:33:23;;;;;;;24.92;12.68;;;6.60;93.40;;;;;;5096635;28;20488;-47
2022/11/05 01:35:50;;;;;;;21.25;11.82;;;6.50;93.40;;;;;;5096346;28;20032;-47
2022/11/05 01:38:17;;;;;;;22.48;12.10;;;6.40;93.50;;;;;;5096211;28;20081;-50
2022/11/05 01:40:43;;;;;;;25.55;12.75;;;6.50;93.50;;;;;;5096423;28;20020;-48
2022/11/05 01:43:44;;;;;;;21.17;12.32;;;6.50;93.50;;;;;;5096532;28;20024;-49
2022/11/05 01:46:10;;;;;;;25.95;11.98;;;6.50;93.50;;;;;;5095061;28;20028;-47
2022/11/05 01:48:37;;;;;;;23.88;12.70;;;6.40;93.50;;;;;;5095691;28;20104;-47
2022/11/05 01:51:16;;;;;;;25.33;12.02;;;6.40;93.40;;;;;;5094831;28;20601;-49
2022/11/05 01:53:50;;;;;;;23.13;11.88;;;6.30;93.50;;;;;;5096108;28;20020;-47
2022/11/05 01:56:21;;;;;;;24.17;11.95;;;6.30;93.60;;;;;;5096410;28;20063;-50
2022/11/05 01:58:53;;;;;;;20.92;12.57;;;6.30;93.50;;;;;;5096168;28;20056;-51
2022/11/05 02:01:19;;;;;;;20.65;11.32;;;6.30;93.60;;;;;;5094560;28;20024;-47
2022/11/05 02:03:47;;;;;;;22.27;12.27;;;6.30;93.60;;;;;;5096017;28;20032;-48
2022/11/05 02:06:16;;;;;;;21.85;13.07;;;6.30;93.60;;;;;;5095675;28;20384;-49
2022/11/05 02:09:08;;;;;;;19.48;11.55;;;6.30;93.60;;;;;;5095990;28;20089;-49
2022/11/05 02:11:34;;;;;;;19.50;11.70;;;6.20;93.60;;;;;;5094507;28;20035;-47
2022/11/05 02:13:59;;;;;;;24.80;12.13;;;6.20;93.70;;;;;;5095481;28;20028;-48
2022/11/05 02:16:41;;;;;;;20.85;11.68;;;6.20;93.70;;;;;;5095512;28;20016;-49
2022/11/05 02:19:12;;;;;;;19.67;11.85;;;6.20;93.70;;;;;;5094264;28;20020;-48
2022/11/05 02:21:59;;;;;;;21.35;12.23;;;6.10;93.80;;;;;;5095806;28;20357;-48
2022/11/05 02:25:09;;;;;;;24.17;12.65;;;6.20;93.80;;;;;;5095617;28;20077;-48
2022/11/05 02:28:09;;;;;;;24.80;12.23;;;6.30;93.70;;;;;;5092789;28;20115;-50
2022/11/05 02:30:41;;;;;;;26.23;12.03;;;6.10;93.60;;;;;;5094574;28;20023;-48
2022/11/05 02:33:37;;;;;;;20.85;11.27;;;6.10;93.70;;;;;;5095316;28;20031;-49
2022/11/05 02:36:16;;;;;;;20.85;12.52;;;6.10;93.70;;;;;;5095411;28;20393;-49
2022/11/05 02:38:50;;;;;;;20.52;11.95;;;6.00;93.70;;;;;;5095374;28;20487;-48
2022/11/05 02:41:19;;;;;;;25.92;12.77;;;6.00;93.70;;;;;;5094058;28;20027;-48
2022/11/05 02:43:55;;;;;;;27.02;13.80;;;6.00;93.80;;;;;;5095018;28;20486;-49
2022/11/05 02:46:27;;;;;;;22.08;13.40;;;6.00;93.70;;;;;;5093754;28;20024;-48
2022/11/05 02:49:24;;;;;;;29.40;14.02;;;5.90;93.70;;;;;;5095068;28;20032;-48
2022/11/05 02:51:57;;;;;;;25.83;14.02;;;5.90;93.80;;;;;;5094893;28;20024;-48
2022/11/05 02:54:32;;;;;;;27.10;14.73;;;5.90;93.80;;;;;;5095084;28;20028;-50
2022/11/05 02:56:59;;;;;;;19.45;12.30;;;5.90;93.90;;;;;;5093506;28;20024;-48
2022/11/05 02:59:25;;;;;;;24.40;14.27;;;6.00;93.90;;;;;;5094102;28;20020;-49
2022/11/05 03:01:55;;;;;;;25.33;13.43;;;6.00;93.90;;;;;;5094585;28;20043;-49
2022/11/05 03:04:22;;;;;;;23.00;14.52;;;6.00;93.90;;;;;;5094889;28;20390;-48
2022/11/05 03:07:29;;;;;;;29.80;14.52;;;6.00;94.00;;;;;;5093366;28;20056;-48
2022/11/05 03:10:13;;;;;;;24.75;13.82;;;6.00;94.10;;;;;;5094857;28;20027;-50
2022/11/05 03:12:42;;;;;;;23.67;15.32;;;6.00;94.10;;;;;;5094851;28;20028;-48
2022/11/05 03:15:19;;;;;;;30.92;16.70;;;6.00;94.10;;;;;;5094178;28;20046;-48
2022/11/05 03:18:00;;;;;;;31.08;15.75;;;6.00;94.10;;;;;;5094674;28;20016;-48
2022/11/05 03:21:01;;;;;;;31.85;16.77;;;6.00;94.20;;;;;;5094257;28;20024;-48
2022/11/05 03:23:57;;;;;;;33.20;14.82;;;6.00;94.20;;;;;;5082953;28;20032;-47
2022/11/05 03:26:34;;;;;;;30.48;18.85;;;6.00;94.30;;;;;;5094267;28;20030;-47
2022/11/05 03:29:08;;;;;;;26.67;15.50;;;6.00;94.30;;;;;;5094202;28;20020;-48
2022/11/05 03:31:36;;;;;;;25.13;15.63;;;5.90;94.30;;;;;;5094356;28;20031;-48
2022/11/05 03:34:04;;;;;;;29.85;17.98;;;5.90;94.30;;;;;;5094146;28;20020;-48
2022/11/05 03:36:40;;;;;;;30.65;17.73;;;6.00;94.40;;;;;;5094315;28;20028;-48
2022/11/05 03:39:09;;;;;;;38.20;17.00;;;5.90;94.30;;;;;;5093936;28;20414;-48
2022/11/05 03:41:39;;;;;;;30.60;16.70;;;5.80;94.40;;;;;;5094038;28;20093;-48
2022/11/05 03:44:07;;;;;;;33.63;17.02;;;5.90;94.40;;;;;;5092605;28;20668;-49
2022/11/05 03:46:38;;;;;;;37.47;17.55;;;5.90;94.40;;;;;;5092719;28;20052;-48
2022/11/05 03:49:09;;;;;;;27.25;17.10;;;5.90;94.40;;;;;;5094335;28;20026;-49
2022/11/05 03:51:47;;;;;;;27.95;16.92;;;6.00;94.40;;;;;;5093870;28;20380;-48
2022/11/05 03:54:14;;;;;;;30.50;17.45;;;5.90;94.30;;;;;;5092459;28;20054;-48
2022/11/05 03:57:03;;;;;;;35.05;17.02;;;6.00;94.30;;;;;;5094569;28;20095;-47
2022/11/05 03:59:30;;;;;;;27.58;15.20;;;5.80;94.20;;;;;;5094089;28;20031;-48
2022/11/05 04:01:57;;;;;;;30.88;17.17;;;5.80;94.20;;;;;;5093664;28;20047;-47
2022/11/05 04:04:22;;;;;;;28.75;16.35;;;5.80;94.30;;;;;;5092591;28;20093;-49
2022/11/05 04:15:01;;;;;;;33.47;18.10;;;5.70;94.30;;;;;;5093397;28;20086;-50
2022/11/05 04:17:26;;;;;;;40.88;19.08;;;5.70;94.40;;;;;;5094070;28;20024;-48
2022/11/05 04:25:22;;;;;;;29.35;19.25;;;5.70;94.40;;;;;;5093762;28;20035;-47
2022/11/05 04:27:48;;;;;;;30.08;18.50;;;5.70;94.50;;;;;;5093374;28;20433;-50
2022/11/05 04:30:18;;;;;;;33.92;18.27;;;5.70;94.50;;;;;;5093713;28;20032;-48
2022/11/05 04:33:02;;;;;;;38.85;19.08;;;5.70;94.50;;;;;;5093447;28;20115;-49
2022/11/05 04:35:31;;;;;;;37.17;18.90;;;5.70;94.60;;;;;;5093464;28;20115;-49
2022/11/05 04:37:57;;;;;;;39.78;22.77;;;5.80;94.60;;;;;;5093502;28;20024;-49
2022/11/05 04:40:23;;;;;;;30.35;17.92;;;5.70;94.60;;;;;;5093432;28;20035;-48
2022/11/05 04:42:49;;;;;;;40.22;19.08;;;5.70;94.60;;;;;;5093322;28;20034;-48
2022/11/05 04:45:14;;;;;;;48.47;19.85;;;5.70;94.60;;;;;;5093233;28;20099;-48
2022/11/05 04:47:40;;;;;;;33.63;21.13;;;5.70;94.60;;;;;;5093365;28;20031;-51
2022/11/05 04:50:09;;;;;;;36.72;19.10;;;5.70;94.60;;;;;;5093345;28;20111;-48
2022/11/05 04:52:35;;;;;;;37.47;18.95;;;5.60;94.60;;;;;;5093229;28;20035;-47
2022/11/05 04:55:03;;;;;;;38.92;21.35;;;5.60;94.60;;;;;;5093982;28;20032;-47
2022/11/05 04:57:29;;;;;;;35.75;20.30;;;5.60;94.60;;;;;;5093240;28;20043;-48
2022/11/05 04:59:54;;;;;;;38.45;20.00;;;5.60;94.60;;;;;;5093057;28;20024;-49
2022/11/05 05:02:20;;;;;;;43.47;20.65;;;5.60;94.60;;;;;;5091743;28;20020;-47
2022/11/05 05:04:46;;;;;;;35.28;19.92;;;5.60;94.60;;;;;;5093307;28;20055;-47
2022/11/05 05:07:12;;;;;;;41.53;19.95;;;5.60;94.60;;;;;;5093548;28;20024;-47
2022/11/05 05:09:37;;;;;;;38.35;20.48;;;5.60;94.60;;;;;;5093264;28;20055;-50
2022/11/05 05:12:03;;;;;;;37.10;21.10;;;5.50;94.60;;;;;;5093034;28;20028;-49
2022/11/05 05:14:28;;;;;;;37.35;19.75;;;5.60;94.60;;;;;;5092912;28;20052;-48
2022/11/05 05:16:54;;;;;;;36.75;18.92;;;5.60;94.60;;;;;;5092957;28;20020;-47
2022/11/05 05:19:20;;;;;;;43.10;21.55;;;5.50;94.60;;;;;;5092869;28;20024;-51
2022/11/05 05:21:45;;;;;;;42.88;20.77;;;5.60;94.70;;;;;;5093265;28;20043;-50
2022/11/05 05:24:17;;;;;;;47.10;22.67;;;5.60;94.60;;;;;;5096993;28;20016;-48
2022/11/05 05:26:45;;;;;;;38.35;20.73;;;5.60;94.60;;;;;;5096860;28;20020;-47
2022/11/05 05:29:11;;;;;;;37.78;22.13;;;5.60;94.60;;;;;;5096795;28;20035;-48
2022/11/05 05:31:38;;;;;;;33.75;20.60;;;5.60;94.60;;;;;;5096830;28;20021;-49
2022/11/05 05:34:04;;;;;;;36.22;21.25;;;5.60;94.50;;;;;;5096601;28;20138;-51
2022/11/05 05:36:30;;;;;;;40.78;20.52;;;5.60;94.60;;;;;;5096521;28;20024;-47
2022/11/05 05:38:56;;;;;;;36.75;21.63;;;5.60;94.60;;;;;;5096319;28;20070;-48
2022/11/05 05:41:22;;;;;;;32.65;20.25;;;5.60;94.60;;;;;;5096758;28;20020;-47
2022/11/05 05:43:48;;;;;;;32.42;19.88;;;5.60;94.60;;;;;;5096302;28;20024;-47
2022/11/05 05:46:16;;;;;;;36.88;19.58;;;5.60;94.50;;;;;;5096256;28;20031;-48
2022/11/05 05:48:46;;;;;;;41.38;20.48;;;5.60;94.50;;;;;;5094767;28;20028;-47
2022/11/05 05:51:12;;;;;;;34.28;20.85;;;5.50;94.50;;;;;;5096605;28;20032;-47
2022/11/05 05:53:37;;;;;;;35.65;19.35;;;5.60;94.50;;;;;;5096208;28;20032;-48
2022/11/05 05:56:04;;;;;;;34.78;18.85;;;5.50;94.60;;;;;;5096089;28;20028;-48
2022/11/05 05:58:37;;;;;;;30.40;18.65;;;5.60;94.50;;;;;;5094809;28;20421;-47
2022/11/05 06:01:06;;;;;;;28.30;18.38;;;5.60;94.50;;;;;;5096229;28;20501;-48
2022/11/05 06:03:32;;;;;;;32.53;18.65;;;5.60;94.50;;;;;;5096825;28;20021;-47
2022/11/05 06:06:19;;;;;;;31.38;19.15;;;5.60;94.60;;;;;;5096767;28;20116;-47
2022/11/05 06:08:46;;;;;;;36.50;17.95;;;5.60;94.50;;;;;;5097333;28;20032;-46
2022/11/05 06:11:12;;;;;;;37.15;19.80;;;5.60;94.60;;;;;;5096436;28;20360;-48
2022/11/05 06:13:37;;;;;;;36.28;18.40;;;5.60;94.50;;;;;;5096981;28;20130;-47
2022/11/05 16:16:12;;;;;;;3.35;2.42;;;10.40;74.90;;;;;;5132421;27;20118;-39
2022/11/05 16:18:39;;;;;;;6.40;3.40;;;10.40;75.10;;;;;;5131736;28;20027;-39
2022/11/05 16:21:09;;;;;;;8.10;3.00;;;10.40;75.20;;;;;;5113326;28;20015;-39
2022/11/05 16:23:40;;;;;;;;;;;10.40;75.30;;;;;;5131844;28;20024;-40
2022/11/05 16:26:31;;;;;;;6.68;2.72;;;10.40;75.30;;;;;;5113010;28;19911;-38
2022/11/05 16:28:59;;;;;;;5.22;2.47;;;10.50;75.10;;;;;;5131238;28;20122;-39
2022/11/05 16:31:30;;;;;;;9.45;2.47;;;10.50;75.00;;;;;;5131106;28;20081;-39
2022/11/05 16:33:57;;;;;;;7.57;2.50;;;10.50;75.30;;;;;;5131223;28;20054;-40
2022/11/05 16:36:24;;;;;;;2.80;2.08;;;10.50;75.00;;;;;;5131271;28;20106;-39
2022/11/05 16:38:49;;;;;;;3.30;2.63;;;10.50;74.70;;;;;;5131294;28;20028;-39
2022/11/05 16:41:21;;;;;;;11.55;3.30;;;10.50;74.70;;;;;;5131150;27;20084;-39
2022/11/05 16:43:58;;;;;;;13.90;2.65;;;10.60;74.20;;;;;;5131353;27;20051;-38
2022/11/05 16:46:27;;;;;;;7.47;3.05;;;10.70;74.10;;;;;;5131323;27;20387;-39
2022/11/05 16:48:54;;;;;;;9.60;2.50;;;10.70;74.40;;;;;;5131426;27;20024;-39
2022/11/05 16:51:20;;;;;;;6.28;2.90;;;10.70;74.10;;;;;;5131001;27;20359;-38
2022/11/05 16:53:49;;;;;;;4.10;2.60;;;10.70;74.10;;;;;;5129841;28;20027;-39
2022/11/05 16:56:20;;;;;;;6.07;2.30;;;10.80;73.70;;;;;;5130996;27;20379;-39
2022/11/05 16:58:47;;;;;;;9.02;3.53;;;10.70;73.90;;;;;;5129613;28;20019;-39
2022/11/05 17:01:19;;;;;;;8.13;2.53;;;10.70;73.90;;;;;;5130783;27;20016;-39
2022/11/05 17:03:45;;;;;;;8.20;3.20;;;10.70;73.90;;;;;;5130876;27;20024;-47
2022/11/05 17:06:13;;;;;;;5.32;2.47;;;10.70;73.70;;;;;;5131356;27;20471;-38
2022/11/05 17:08:39;;;;;;;13.30;3.42;;;10.80;73.70;;;;;;5112756;28;20039;-39
2022/11/05 17:11:05;;;;;;;4.35;2.65;;;10.80;73.70;;;;;;5129435;28;20023;-39
2022/11/05 17:13:31;;;;;;;5.30;3.08;;;10.70;73.60;;;;;;5131173;27;20024;-40
2022/11/05 17:15:56;;;;;;;4.05;2.63;;;10.60;73.70;;;;;;5129622;28;20372;-40
2022/11/05 17:18:22;;;;;;;5.00;2.88;;;10.60;73.70;;;;;;5130919;27;20020;-39
2022/11/05 17:20:51;;;;;;;5.40;3.35;;;10.60;73.60;;;;;;5129281;28;20023;-39
2022/11/05 17:23:22;;;;;;;5.20;2.85;;;10.60;73.60;;;;;;5129402;28;20023;-39
2022/11/05 17:25:51;;;;;;;11.77;3.15;;;10.50;73.60;;;;;;5126900;27;20038;-39
2022/11/05 17:28:18;;;;;;;6.53;2.95;;;10.60;73.60;;;;;;5117276;28;20023;-39
2022/11/05 17:30:47;;;;;;;8.02;3.70;;;10.50;73.70;;;;;;5117328;27;20054;-39
2022/11/05 17:33:14;;;;;;;7.03;3.00;;;10.70;72.90;;;;;;5117023;28;20024;-38
2022/11/05 17:35:41;;;;;;;5.80;3.65;;;10.70;72.80;;;;;;5116168;28;20031;-39
2022/11/05 17:38:07;;;;;;;8.05;2.33;;;10.60;72.70;;;;;;5115964;28;20074;-38
2022/11/05 17:40:34;;;;;;;6.28;2.83;;;10.70;72.70;;;;;;5114914;28;20016;-38
2022/11/05 17:43:00;;;;;;;6.53;3.17;;;10.70;72.40;;;;;;5115440;28;20024;-38
2022/11/05 17:45:26;;;;;;;5.93;2.67;;;10.70;72.70;;;;;;5114975;28;20089;-40
2022/11/05 17:47:52;;;;;;;8.50;2.15;;;10.80;72.40;;;;;;5116503;28;20028;-40
2022/11/05 17:50:17;;;;;;;5.28;2.67;;;10.70;72.60;;;;;;5116129;28;20024;-39
2022/11/05 17:52:43;;;;;;;3.00;2.20;;;10.80;72.60;;;;;;5116214;28;20055;-40
2022/11/05 17:55:15;;;;;;;4.05;2.47;;;10.70;72.40;;;;;;5114772;28;20034;-39
2022/11/05 17:57:49;;;;;;;6.75;2.72;;;10.70;72.60;;;;;;5116152;28;20028;-39
2022/11/05 18:00:21;;;;;;;5.85;3.42;;;10.70;72.60;;;;;;5116050;28;20020;-38
2022/11/05 18:02:48;;;;;;;3.78;2.22;;;10.70;72.70;;;;;;5115443;28;20111;-39
2022/11/05 18:05:15;;;;;;;4.15;1.95;;;10.70;72.60;;;;;;5116282;28;20476;-38
2022/11/05 18:07:41;;;;;;;6.85;2.15;;;10.60;72.80;;;;;;5115882;28;20073;-39
2022/11/05 18:10:08;;;;;;;13.15;2.80;;;10.60;72.90;;;;;;5114958;28;20024;-40
2022/11/05 18:12:35;;;;;;;5.28;2.15;;;10.60;73.00;;;;;;5116314;28;20483;-39
2022/11/05 18:15:00;;;;;;;9.43;2.88;;;10.60;73.30;;;;;;5097334;28;20495;-38
2022/11/05 18:17:26;;;;;;;5.32;2.80;;;10.60;73.20;;;;;;5114328;28;20038;-40
2022/11/05 18:19:52;;;;;;;9.95;2.97;;;10.50;73.20;;;;;;5116586;28;20027;-39
2022/11/05 18:22:18;;;;;;;11.63;2.88;;;10.50;73.30;;;;;;5114600;28;20027;-39
2022/11/05 18:24:44;;;;;;;4.18;2.00;;;10.60;73.10;;;;;;5116005;28;20395;-39
2022/11/05 18:27:10;;;;;;;2.80;1.92;;;10.70;73.00;;;;;;5115488;28;20034;-40
2022/11/05 18:29:36;;;;;;;9.52;3.70;;;10.70;73.10;;;;;;5115254;28;20106;-39
2022/11/05 18:32:03;;;;;;;5.32;2.55;;;10.60;73.20;;;;;;5115912;28;20370;-39
2022/11/05 18:34:28;;;;;;;4.32;2.33;;;10.50;73.40;;;;;;5115583;28;20032;-39
2022/11/05 18:36:55;;;;;;;8.23;2.38;;;10.50;73.70;;;;;;5115602;28;20464;-39
2022/11/05 18:39:21;;;;;;;3.05;2.08;;;10.60;73.50;;;;;;5114865;28;20027;-40
2022/11/05 18:41:46;;;;;;;5.35;2.22;;;10.50;73.60;;;;;;5115333;28;20467;-40
2022/11/05 18:44:15;;;;;;;3.75;2.17;;;10.50;74.00;;;;;;5115423;28;20091;-39
2022/11/05 18:46:41;;;;;;;3.85;2.10;;;10.50;74.20;;;;;;5115335;28;20035;-40
2022/11/05 18:49:10;;;;;;;9.13;3.28;;;10.50;74.40;;;;;;5115635;28;20028;-38
2022/11/05 18:51:36;;;;;;;5.90;1.92;;;10.50;74.50;;;;;;5115507;28;20484;-39
2022/11/05 18:54:02;;;;;;;2.33;1.92;;;10.50;74.40;;;;;;5114941;28;20490;-45
2022/11/05 18:56:28;;;;;;;5.10;2.75;;;10.60;74.50;;;;;;5116085;28;20367;-39
2022/11/05 18:58:54;;;;;;;5.22;2.25;;;10.50;74.80;;;;;;5115325;28;20027;-42
2022/11/05 19:01:22;;;;;;;7.25;2.85;;;10.50;74.80;;;;;;5115284;28;20020;-39
2022/11/05 19:03:50;;;;;;;6.68;2.60;;;10.50;75.00;;;;;;5115159;28;20048;-39
2022/11/05 19:06:16;;;;;;;5.43;2.65;;;10.50;74.90;;;;;;5114809;28;20016;-40
2022/11/05 19:08:43;;;;;;;6.18;3.22;;;10.40;75.40;;;;;;5115222;28;20102;-40
2022/11/05 19:11:15;;;;;;;4.47;2.25;;;10.40;75.50;;;;;;5114850;28;20026;-39
2022/11/05 19:13:40;;;;;;;8.23;2.03;;;10.40;75.70;;;;;;5114744;28;20379;-40
2022/11/05 19:16:12;;;;;;;5.70;2.90;;;10.40;75.50;;;;;;5114209;28;20047;-39
2022/11/05 19:18:38;;;;;;;5.72;2.47;;;10.40;75.80;;;;;;5114449;28;20058;-41
2022/11/05 19:21:11;;;;;;;4.32;2.40;;;10.40;75.90;;;;;;5114728;28;20475;-39
2022/11/05 19:23:38;;;;;;;2.75;2.05;;;10.50;75.90;;;;;;5114814;28;20523;-40
2022/11/05 19:26:08;;;;;;;4.60;2.50;;;10.40;76.00;;;;;;5114911;28;20102;-39
2022/11/05 19:28:34;;;;;;;8.20;2.72;;;10.40;76.20;;;;;;5113521;28;20031;-38
2022/11/05 19:31:00;;;;;;;4.18;2.45;;;10.40;76.10;;;;;;5112961;28;20074;-39
2022/11/05 19:33:26;;;;;;;7.93;3.22;;;10.40;76.20;;;;;;5114579;28;20032;-39
2022/11/05 19:35:53;;;;;;;6.38;2.50;;;10.50;76.10;;;;;;5113107;28;20030;-39
2022/11/05 19:38:18;;;;;;;5.05;2.70;;;10.40;76.50;;;;;;5114378;28;20106;-39
2022/11/05 19:40:44;;;;;;;4.55;2.20;;;10.40;76.50;;;;;;5114549;28;20353;-39
2022/11/05 19:43:10;;;;;;;6.55;2.75;;;10.30;76.80;;;;;;5114254;28;20022;-39
2022/11/05 19:45:38;;;;;;;7.18;4.07;;;10.40;76.80;;;;;;5114362;28;20034;-40
2022/11/05 19:48:04;;;;;;;5.85;2.38;;;10.30;76.90;;;;;;5114455;28;20032;-39
2022/11/05 19:50:29;;;;;;;5.22;2.50;;;10.30;77.10;;;;;;5114741;28;20034;-40
2022/11/05 19:52:55;;;;;;;8.10;3.03;;;10.30;77.20;;;;;;5112965;28;20032;-38
2022/11/05 19:55:21;;;;;;;3.67;2.22;;;10.30;77.50;;;;;;5114164;28;20023;-40
2022/11/05 19:57:47;;;;;;;5.82;2.80;;;10.30;77.50;;;;;;5114216;28;20023;-39
2022/11/05 20:00:12;;;;;;;7.60;3.33;;;10.20;77.70;;;;;;5114086;28;20100;-39
2022/11/05 20:02:44;;;;;;;7.65;3.35;;;10.20;78.00;;;;;;5114064;28;20045;-39
2022/11/05 20:05:14;;;;;;;6.70;3.22;;;10.20;77.80;;;;;;5113779;28;20055;-39
2022/11/05 20:07:40;;;;;;;5.30;3.17;;;10.20;77.80;;;;;;5113605;28;20366;-40
2022/11/05 20:10:07;;;;;;;11.10;3.40;;;10.20;77.90;;;;;;5114099;28;20097;-40
2022/11/05 20:12:34;;;;;;;3.50;2.58;;;10.20;78.20;;;;;;5113874;28;20046;-39
2022/11/05 20:15:01;;;;;;;4.13;2.50;;;10.20;78.20;;;;;;5113941;28;20070;-39
2022/11/05 20:17:26;;;;;;;6.18;3.28;;;10.20;78.20;;;;;;5113731;28;20024;-39
2022/11/05 20:19:52;;;;;;;7.03;3.90;;;10.20;78.30;;;;;;5113754;28;20467;-40
2022/11/05 20:22:18;;;;;;;8.70;3.22;;;10.20;78.40;;;;;;5114380;28;20019;-40
2022/11/05 20:24:43;;;;;;;9.50;3.33;;;10.20;78.30;;;;;;5114036;28;20039;-39
2022/11/05 20:27:09;;;;;;;6.18;2.92;;;10.10;78.30;;;;;;5113731;28;20388;-39
2022/11/05 20:29:35;;;;;;;12.63;3.88;;;10.10;78.40;;;;;;5113797;28;20035;-39
2022/11/05 20:32:01;;;;;;;6.93;3.28;;;10.10;78.40;;;;;;5113922;28;20035;-41
2022/11/05 20:34:28;;;;;;;8.90;3.92;;;10.20;78.30;;;;;;5113772;28;20076;-38
2022/11/05 20:36:54;;;;;;;4.63;2.83;;;10.10;78.50;;;;;;5113752;28;20038;-39
2022/11/05 20:39:20;;;;;;;6.03;3.30;;;10.10;78.60;;;;;;5113643;28;20012;-39
2022/11/05 20:41:46;;;;;;;8.23;3.80;;;10.10;78.50;;;;;;5112733;28;20031;-40
2022/11/05 20:44:12;;;;;;;12.85;4.28;;;10.00;78.70;;;;;;5113780;28;20024;-40
2022/11/05 20:46:38;;;;;;;6.28;3.58;;;10.10;78.50;;;;;;5112444;28;20047;-40
2022/11/05 20:49:04;;;;;;;4.32;2.90;;;10.10;78.60;;;;;;5113931;28;20102;-38
2022/11/05 20:51:30;;;;;;;13.45;4.25;;;10.00;78.70;;;;;;5113861;28;20028;-39
2022/11/05 20:53:58;;;;;;;10.52;3.83;;;10.00;79.00;;;;;;5113568;28;20030;-40
2022/11/05 20:56:26;;;;;;;5.93;3.30;;;10.00;78.90;;;;;;5113936;28;20116;-40
2022/11/05 20:58:52;;;;;;;5.70;3.45;;;9.90;78.90;;;;;;5114704;28;20083;-39
2022/11/05 21:01:19;;;;;;;9.77;3.95;;;10.00;79.00;;;;;;5097691;28;20077;-39
2022/11/05 21:03:46;;;;;;;5.43;3.60;;;10.00;78.80;;;;;;5118331;28;20024;-39
2022/11/05 21:06:13;;;;;;;7.95;3.90;;;10.00;78.70;;;;;;5100839;28;20479;-40
2022/11/05 21:08:39;;;;;;;9.73;4.13;;;10.10;78.60;;;;;;5116097;28;20028;-39
2022/11/05 21:11:06;;;;;;;9.20;3.50;;;10.10;78.30;;;;;;5118708;28;20043;-39
2022/11/05 21:13:31;;;;;;;9.00;4.07;;;10.10;78.20;;;;;;5118795;28;20020;-39
2022/11/05 21:15:59;;;;;;;5.97;3.22;;;10.10;78.50;;;;;;5118556;28;20244;-40
2022/11/05 21:18:27;;;;;;;8.77;3.67;;;10.10;78.70;;;;;;5118757;28;20523;-40
2022/11/05 21:20:54;;;;;;;10.43;3.60;;;10.00;78.60;;;;;;5119004;28;20023;-41
2022/11/05 21:23:20;;;;;;;9.95;4.30;;;10.00;78.60;;;;;;5119848;28;20020;-39
2022/11/05 21:25:46;;;;;;;7.97;4.00;;;10.00;78.60;;;;;;5119762;28;20394;-39
2022/11/05 21:28:13;;;;;;;8.20;4.45;;;9.90;78.70;;;;;;5118679;28;20055;-39
2022/11/05 21:30:44;;;;;;;7.65;3.92;;;9.90;78.70;;;;;;5117582;28;20020;-40
2022/11/05 21:33:11;;;;;;;9.43;4.38;;;9.90;78.90;;;;;;5117968;28;20032;-40
2022/11/05 21:35:43;;;;;;;10.13;4.43;;;9.90;79.10;;;;;;5117033;28;20391;-38
2022/11/05 21:38:09;;;;;;;8.48;4.43;;;9.80;79.00;;;;;;5117206;28;20019;-39
2022/11/05 21:40:36;;;;;;;6.15;3.97;;;9.80;79.10;;;;;;5116686;28;20028;-39
2022/11/05 21:43:21;;;;;;;13.23;4.80;;;9.90;79.00;;;;;;5117128;28;20062;-39
2022/11/05 21:45:47;;;;;;;6.88;4.55;;;9.90;78.90;;;;;;5117050;28;20387;-39
2022/11/05 21:48:14;;;;;;;8.35;3.75;;;9.80;79.00;;;;;;5116844;28;20032;-39
2022/11/05 22:01:48;;;;;;;6.78;4.18;;;9.80;79.00;;;;;;5116697;28;20039;-39
2022/11/05 22:04:14;;;;;;;7.80;4.28;;;9.80;78.90;;;;;;5116003;28;20021;-39
2022/11/05 22:06:40;;;;;;;7.05;3.83;;;9.80;78.70;;;;;;5116150;28;20020;-39
2022/11/05 22:09:05;;;;;;;10.38;3.85;;;9.80;78.70;;;;;;5116181;28;20020;-40
2022/11/05 22:11:36;;;;;;;8.75;4.35;;;9.80;78.90;;;;;;5116205;28;20429;-38
2022/11/05 22:14:02;;;;;;;3.83;2.95;;;9.80;78.70;;;;;;5115545;28;20081;-39
2022/11/05 22:16:28;;;;;;;5.47;4.10;;;9.80;78.80;;;;;;5116214;28;20502;-39
2022/11/05 22:18:58;;;;;;;8.35;4.32;;;9.80;78.80;;;;;;5115847;28;20023;-39
2022/11/05 22:21:26;;;;;;;8.05;4.30;;;9.80;78.90;;;;;;5116116;28;20501;-40
2022/11/05 22:23:52;;;;;;;6.88;4.75;;;9.70;79.00;;;;;;5115800;27;20028;-39
2022/11/05 22:26:18;;;;;;;4.40;3.65;;;9.70;79.20;;;;;;5115969;28;20496;-41
2022/11/05 22:28:44;;;;;;;6.63;3.90;;;9.70;79.20;;;;;;5116049;28;20037;-41
2022/11/05 22:31:14;;;;;;;9.57;4.32;;;9.70;79.10;;;;;;5116137;28;20471;-43
2022/11/05 22:33:39;;;;;;;6.63;3.30;;;9.70;79.10;;;;;;5115719;28;20024;-39
2022/11/05 22:36:05;;;;;;;63.35;30.05;;;9.70;79.10;;;;;;5114884;28;20032;-38
2022/11/05 22:38:31;;;;;;;6.80;4.50;;;9.60;79.20;;;;;;5114478;28;20020;-39
2022/11/05 22:40:57;;;;;;;11.48;4.55;;;9.60;79.30;;;;;;5115549;28;20024;-38
2022/11/05 22:43:23;;;;;;;10.40;6.07;;;9.60;79.50;;;;;;5114313;28;20026;-40
2022/11/05 22:45:48;;;;;;;7.78;4.78;;;9.50;79.40;;;;;;5115483;28;20468;-40
2022/11/05 22:48:14;;;;;;;8.40;3.35;;;9.50;79.60;;;;;;5116214;28;20031;-39
2022/11/05 22:50:39;;;;;;;14.52;5.75;;;9.50;79.80;;;;;;5115879;28;20028;-39
2022/11/05 22:53:05;;;;;;;10.63;4.72;;;9.40;79.70;;;;;;5115459;28;20383;-38
2022/11/05 22:55:31;;;;;;;5.60;3.72;;;9.40;79.90;;;;;;5115684;28;20027;-38
2022/11/05 22:57:57;;;;;;;8.43;3.67;;;9.40;79.80;;;;;;5115566;28;20038;-40
2022/11/05 23:00:34;;;;;;;6.47;4.38;;;9.30;80.00;;;;;;5115127;28;20015;-40
2022/11/05 23:03:01;;;;;;;8.07;4.45;;;9.30;79.90;;;;;;5115320;28;20059;-39
2022/11/05 23:05:27;;;;;;;10.60;3.95;;;9.40;79.80;;;;;;5113825;28;20046;-38
2022/11/05 23:13:22;;;;;;;11.65;4.05;;;9.50;79.50;;;;;;5115356;28;20038;-39
2022/11/05 23:24:02;;;;;;;6.85;3.70;;;9.60;79.00;;;;;;5114383;28;20072;-38
2022/11/05 23:26:48;;;;;;;6.57;3.72;;;9.60;79.10;;;;;;5114577;28;20069;-40
2022/11/05 23:29:14;;;;;;;10.50;4.15;;;9.60;78.90;;;;;;5114476;28;20494;-39
2022/11/05 23:34:24;;;;;;;12.32;3.83;;;9.60;79.00;;;;;;5114422;28;20124;-40
2022/11/05 23:39:33;;;;;;;8.75;3.60;;;9.70;78.50;;;;;;5113974;28;20030;-38
2022/11/05 23:50:11;;;;;;;7.07;4.68;;;9.50;79.30;;;;;;5114442;28;20540;-39
2022/11/05 23:52:37;;;;;;;8.82;3.63;;;9.40;79.40;;;;;;5114166;28;20023;-40
2022/11/05 23:55:02;;;;;;;11.05;3.58;;;9.40;79.60;;;;;;5114257;28;20024;-39
2022/11/05 23:57:28;;;;;;;7.35;3.40;;;9.40;79.70;;;;;;5112809;28;20513;-38
2022/11/05 23:59:54;;;;;;;10.57;3.08;;;9.50;79.40;;;;;;5113946;28;20024;-38
